createdAt,value
2022-09-29T00:00:38.163Z,2.00
2022-09-29T00:03:06.382Z,1.90
2022-09-29T00:05:34.794Z,2.10
2022-09-29T00:08:02.863Z,2.05
2022-09-29T00:10:31.958Z,2.00
2022-09-29T00:12:59.771Z,2.00
2022-09-29T00:15:27.593Z,2.00
2022-09-29T00:18:13.062Z,2.00
2022-09-29T00:20:41.355Z,1.98
2022-09-29T00:23:09.095Z,1.77
2022-09-29T00:25:38.168Z,2.10
2022-09-29T00:28:05.981Z,1.95
2022-09-29T00:30:33.804Z,2.00
2022-09-29T00:33:01.536Z,2.08
2022-09-29T00:35:29.279Z,2.10
2022-09-29T00:37:57.002Z,1.90
2022-09-29T00:40:24.833Z,2.00
2022-09-29T00:42:53.952Z,1.65
2022-09-29T00:45:24.124Z,2.00
2022-09-29T00:47:58.280Z,1.60
2022-09-29T00:50:33.050Z,1.40
2022-09-29T00:53:04.125Z,1.60
2022-09-29T00:55:36.968Z,1.70
2022-09-29T00:58:13.874Z,1.80
2022-09-29T01:00:43.646Z,1.83
2022-09-29T01:03:17.174Z,1.90
2022-09-29T01:05:49.151Z,1.90
2022-09-29T01:08:24.235Z,2.10
2022-09-29T01:10:53.410Z,2.10
2022-09-29T01:13:23.319Z,1.80
2022-09-29T01:15:51.161Z,1.90
2022-09-29T01:18:18.950Z,1.70
2022-09-29T01:20:57.818Z,1.70
2022-09-29T01:26:56.808Z,1.80
2022-09-29T01:30:06.945Z,2.10
2022-09-29T01:32:44.551Z,1.80
2022-09-29T01:35:17.779Z,2.08
2022-09-29T01:37:56.883Z,1.90
2022-09-29T01:40:30.540Z,1.90
2022-09-29T01:43:06.778Z,2.17
2022-09-29T01:45:37.519Z,1.90
2022-09-29T01:48:09.214Z,1.90
2022-09-29T01:50:40.889Z,1.95
2022-09-29T01:53:12.511Z,2.15
2022-09-29T01:55:45.504Z,2.20
2022-09-29T01:58:19.431Z,2.17
2022-09-29T02:00:52.180Z,2.03
2022-09-29T02:03:25.958Z,2.30
2022-09-29T02:05:56.335Z,2.17
2022-09-29T02:08:32.576Z,2.40
2022-09-29T02:11:04.171Z,2.40
2022-09-29T02:13:33.886Z,2.15
2022-09-29T02:16:03.687Z,2.47
2022-09-29T02:18:41.644Z,2.40
2022-09-29T02:21:10.218Z,2.47
2022-09-29T02:23:38.010Z,2.67
2022-09-29T02:26:06.244Z,2.58
2022-09-29T02:28:34.555Z,2.60
2022-09-29T02:31:02.850Z,2.50
2022-09-29T02:33:32.135Z,2.70
2022-09-29T02:36:09.239Z,2.72
2022-09-29T02:38:47.867Z,2.77
2022-09-29T02:41:29.975Z,3.00
2022-09-29T02:44:20.116Z,2.70
2022-09-29T02:47:08.568Z,2.60
2022-09-29T02:49:57.338Z,2.50
2022-09-29T02:52:32.658Z,2.40
2022-09-29T02:55:12.103Z,2.10
2022-09-29T02:57:49.928Z,2.25
2022-09-29T03:00:19.870Z,2.30
2022-09-29T03:02:47.942Z,2.27
2022-09-29T03:05:18.999Z,2.10
2022-09-29T03:07:47.287Z,2.50
2022-09-29T03:10:17.155Z,2.20
2022-09-29T03:12:46.596Z,2.47
2022-09-29T03:15:14.670Z,2.70
2022-09-29T03:17:42.581Z,2.23
2022-09-29T03:20:11.036Z,2.20
2022-09-29T03:22:40.147Z,2.37
2022-09-29T03:25:09.503Z,2.20
2022-09-29T03:27:38.321Z,2.50
2022-09-29T03:30:07.028Z,2.47
2022-09-29T03:32:34.875Z,2.70
2022-09-29T03:35:02.617Z,2.50
2022-09-29T03:37:30.363Z,2.47
2022-09-29T03:39:59.462Z,2.83
2022-09-29T03:42:28.253Z,2.40
2022-09-29T03:44:56.267Z,3.05
2022-09-29T03:47:24.002Z,4.43
2022-09-29T03:49:51.810Z,4.32
2022-09-29T03:52:20.071Z,3.67
2022-09-29T03:54:47.841Z,3.60
2022-09-29T03:57:17.162Z,3.40
2022-09-29T03:59:45.825Z,3.30
2022-09-29T04:02:14.240Z,3.50
2022-09-29T04:04:42.985Z,3.17
2022-09-29T04:07:10.751Z,3.10
2022-09-29T04:09:39.082Z,2.90
2022-09-29T04:12:06.946Z,3.10
2022-09-29T04:14:36.037Z,2.80
2022-09-29T04:17:03.815Z,2.67
2022-09-29T04:19:31.591Z,2.27
2022-09-29T04:21:59.426Z,2.40
2022-09-29T04:24:27.406Z,2.58
2022-09-29T04:26:55.171Z,2.50
2022-09-29T04:29:22.955Z,2.47
2022-09-29T04:31:52.130Z,2.30
2022-09-29T04:34:20.563Z,2.30
2022-09-29T04:36:48.323Z,2.20
2022-09-29T04:39:16.067Z,2.55
2022-09-29T04:41:43.841Z,2.60
2022-09-29T04:44:11.589Z,2.35
2022-09-29T04:46:39.322Z,2.30
2022-09-29T04:49:08.586Z,2.22
2022-09-29T04:51:36.339Z,2.10
2022-09-29T04:54:04.287Z,2.38
2022-09-29T04:56:32.094Z,2.22
2022-09-29T04:59:00.279Z,2.53
2022-09-29T05:01:28.309Z,2.00
2022-09-29T05:03:56.382Z,2.42
2022-09-29T05:06:25.591Z,2.50
2022-09-29T05:08:53.332Z,2.70
2022-09-29T05:11:21.845Z,2.60
2022-09-29T05:13:50.742Z,2.60
2022-09-29T05:16:18.579Z,2.50
2022-09-29T05:18:46.445Z,2.30
2022-09-29T05:21:29.788Z,2.50
2022-09-29T05:23:58.945Z,2.10
2022-09-29T05:26:26.778Z,2.30
2022-09-29T05:28:54.660Z,2.35
2022-09-29T05:31:22.742Z,2.53
2022-09-29T05:33:50.901Z,2.70
2022-09-29T05:36:18.712Z,2.40
2022-09-29T05:38:46.498Z,2.58
2022-09-29T05:41:22.326Z,2.70
2022-09-29T05:43:50.486Z,2.67
2022-09-29T05:46:19.321Z,2.33
2022-09-29T05:48:47.386Z,2.35
2022-09-29T05:51:21.840Z,2.70
2022-09-29T05:53:51.226Z,2.78
2022-09-29T05:56:22.405Z,3.10
2022-09-29T05:58:50.702Z,2.80
2022-09-29T06:01:21.119Z,3.05
2022-09-29T06:03:50.953Z,2.85
2022-09-29T06:06:20.726Z,3.25
2022-09-29T06:08:49.566Z,3.30
2022-09-29T06:11:19.434Z,3.10
2022-09-29T06:13:51.145Z,3.20
2022-09-29T06:16:21.417Z,4.00
2022-09-29T06:18:49.827Z,4.10
2022-09-29T06:21:20.036Z,3.60
2022-09-29T06:23:48.659Z,3.70
2022-09-29T06:26:23.407Z,3.83
2022-09-29T06:28:53.673Z,4.20
2022-09-29T06:31:24.142Z,3.70
2022-09-29T06:33:52.782Z,3.78
2022-09-29T06:36:40.085Z,4.30
2022-09-29T06:39:09.931Z,4.28
2022-09-29T06:41:37.959Z,4.10
2022-09-29T06:44:07.216Z,4.15
2022-09-29T06:46:35.454Z,4.38
2022-09-29T06:49:03.281Z,4.18
2022-09-29T06:51:41.379Z,4.18
2022-09-29T06:54:12.823Z,5.05
2022-09-29T06:56:41.138Z,4.95
2022-09-29T06:59:10.356Z,5.00
2022-09-29T07:01:38.273Z,4.90
2022-09-29T07:04:06.140Z,4.80
2022-09-29T07:06:35.354Z,4.80
2022-09-29T07:09:03.287Z,5.10
2022-09-29T07:11:31.423Z,4.80
2022-09-29T07:13:59.211Z,4.70
2022-09-29T07:16:28.396Z,4.70
2022-09-29T07:18:56.526Z,5.40
2022-09-29T07:21:24.369Z,4.75
2022-09-29T07:23:52.106Z,4.97
2022-09-29T07:26:20.033Z,3.97
2022-09-29T07:28:48.646Z,3.45
2022-09-29T07:31:18.550Z,3.20
2022-09-29T07:33:49.084Z,3.17
2022-09-29T07:36:18.494Z,3.15
2022-09-29T07:38:48.135Z,3.70
2022-09-29T07:41:16.710Z,2.70
2022-09-29T07:43:44.436Z,2.58
2022-09-29T07:46:12.445Z,2.60
2022-09-29T07:48:40.763Z,2.43
2022-09-29T07:51:12.655Z,2.22
2022-09-29T07:53:40.916Z,2.35
2022-09-29T07:56:10.505Z,2.05
2022-09-29T07:58:39.011Z,3.25
2022-09-29T08:01:10.547Z,2.20
2022-09-29T08:03:39.177Z,2.30
2022-09-29T08:06:08.751Z,2.45
2022-09-29T08:08:37.250Z,1.90
2022-09-29T08:11:07.131Z,1.90
2022-09-29T08:13:36.205Z,2.10
2022-09-29T08:16:05.938Z,1.70
2022-09-29T08:18:35.292Z,1.90
2022-09-29T08:21:04.179Z,1.50
2022-09-29T08:23:37.152Z,2.20
2022-09-29T08:26:06.812Z,2.00
2022-09-29T08:28:36.392Z,1.98
2022-09-29T08:31:04.862Z,2.00
2022-09-29T08:33:33.177Z,1.70
2022-09-29T08:36:03.650Z,1.80
2022-09-29T08:38:34.971Z,1.80
2022-09-29T08:41:06.068Z,1.98
2022-09-29T08:43:39.054Z,2.10
2022-09-29T08:46:10.194Z,1.92
2022-09-29T08:48:54.562Z,1.88
2022-09-29T08:51:41.244Z,2.20
2022-09-29T08:54:33.489Z,1.92
2022-09-29T08:57:06.496Z,1.85
2022-09-29T08:59:34.494Z,1.80
2022-09-29T09:02:23.653Z,1.73
2022-09-29T09:05:17.186Z,2.10
2022-09-29T09:07:53.288Z,1.90
2022-09-29T09:10:32.053Z,1.80
2022-09-29T09:13:12.683Z,1.70
2022-09-29T09:15:55.175Z,3.33
2022-09-29T09:18:37.937Z,2.50
2022-09-29T09:21:09.397Z,3.10
2022-09-29T09:23:50.711Z,1.50
2022-09-29T09:26:21.352Z,1.40
2022-09-29T09:28:54.543Z,1.45
2022-09-29T09:31:27.797Z,1.50
2022-09-29T09:34:05.810Z,1.30
2022-09-29T09:36:38.076Z,1.40
2022-09-29T09:39:13.545Z,1.10
2022-09-29T09:41:46.431Z,1.30
2022-09-29T09:44:17.407Z,1.23
2022-09-29T09:46:49.599Z,2.38
2022-09-29T09:49:21.624Z,1.70
2022-09-29T09:51:55.720Z,1.80
2022-09-29T09:54:31.290Z,1.70
2022-09-29T09:57:23.649Z,1.53
2022-09-29T10:00:05.334Z,1.80
2022-09-29T10:02:33.389Z,1.90
2022-09-29T10:05:04.099Z,1.90
2022-09-29T10:07:34.095Z,1.70
2022-09-29T10:10:05.713Z,1.80
2022-09-29T10:12:34.828Z,2.10
2022-09-29T10:15:06.399Z,1.90
2022-09-29T10:17:40.204Z,2.00
2022-09-29T10:20:09.597Z,1.73
2022-09-29T10:22:38.010Z,2.97
2022-09-29T10:25:19.294Z,2.30
2022-09-29T10:27:51.788Z,2.20
2022-09-29T10:30:28.688Z,1.90
2022-09-29T10:33:00.574Z,1.80
2022-09-29T10:35:34.102Z,1.90
2022-09-29T10:38:03.981Z,1.80
2022-09-29T10:40:31.811Z,1.70
2022-09-29T10:43:23.776Z,1.80
2022-09-29T10:45:53.820Z,1.70
2022-09-29T10:48:21.668Z,1.30
2022-09-29T10:50:52.370Z,1.30
2022-09-29T10:53:26.453Z,1.30
2022-09-29T10:55:56.898Z,1.52
2022-09-29T10:58:44.524Z,1.88
2022-09-29T11:01:15.860Z,1.30
2022-09-29T11:03:51.170Z,1.23
2022-09-29T11:06:27.214Z,1.30
2022-09-29T11:09:00.809Z,1.30
2022-09-29T11:11:31.399Z,1.00
2022-09-29T11:14:01.519Z,1.48
2022-09-29T11:16:32.482Z,1.70
2022-09-29T11:19:06.423Z,1.55
2022-09-29T11:22:17.739Z,1.50
2022-09-29T11:25:03.596Z,1.77
2022-09-29T11:27:43.555Z,1.70
2022-09-29T11:30:17.699Z,1.95
2022-09-29T11:33:05.360Z,1.50
2022-09-29T11:35:44.957Z,1.60
2022-09-29T11:38:41.755Z,1.40
2022-09-29T11:41:33.980Z,1.80
2022-09-29T11:44:12.489Z,1.45
2022-09-29T11:46:55.725Z,1.40
2022-09-29T11:49:59.607Z,1.30
2022-09-29T11:52:47.445Z,1.60
2022-09-29T11:55:41.345Z,1.20
2022-09-29T11:58:25.538Z,2.28
2022-09-29T12:01:10.537Z,1.27
2022-09-29T12:03:47.101Z,1.80
2022-09-29T12:06:41.489Z,1.90
2022-09-29T12:09:27.651Z,1.63
2022-09-29T12:12:22.539Z,1.63
2022-09-29T12:15:07.601Z,1.48
2022-09-29T12:17:39.236Z,1.50
2022-09-29T12:20:19.483Z,1.38
2022-09-29T12:22:49.434Z,1.60
2022-09-29T12:25:20.659Z,1.90
2022-09-29T12:27:50.957Z,2.30
2022-09-29T12:30:23.880Z,1.50
2022-09-29T12:32:58.582Z,1.60
2022-09-29T12:35:35.583Z,1.75
2022-09-29T12:38:16.501Z,1.88
2022-09-29T12:40:49.252Z,2.30
2022-09-29T12:43:24.152Z,2.15
2022-09-29T12:45:57.968Z,2.58
2022-09-29T12:48:47.541Z,2.55
2022-09-29T12:51:25.366Z,2.53
2022-09-29T12:54:09.999Z,2.15
2022-09-29T12:56:43.073Z,2.67
2022-09-29T12:59:14.891Z,2.72
2022-09-29T13:01:42.759Z,2.78
2022-09-29T13:04:39.751Z,2.90
2022-09-29T13:07:25.303Z,2.20
2022-09-29T13:10:15.527Z,2.50
2022-09-29T13:13:04.579Z,2.35
2022-09-29T13:15:46.366Z,2.70
2022-09-29T13:18:54.244Z,2.90
2022-09-29T13:21:35.177Z,2.90
2022-09-29T13:24:20.203Z,2.93
2022-09-29T13:27:10.567Z,2.90
2022-09-29T13:29:46.779Z,2.67
2022-09-29T13:32:15.602Z,3.10
2022-09-29T13:34:50.330Z,3.10
2022-09-29T13:37:20.738Z,3.10
2022-09-29T13:40:01.487Z,3.58
2022-09-29T13:42:44.505Z,3.35
2022-09-29T13:45:41.063Z,2.80
2022-09-29T13:48:49.835Z,3.38
2022-09-29T13:51:30.797Z,4.03
2022-09-29T13:54:28.007Z,3.47
2022-09-29T13:57:28.800Z,3.75
2022-09-29T14:00:25.895Z,3.75
2022-09-29T14:03:27.121Z,3.83
2022-09-29T14:06:39.831Z,3.97
2022-09-29T14:09:12.821Z,4.40
2022-09-29T14:11:43.078Z,4.63
2022-09-29T14:14:18.767Z,4.43
2022-09-29T14:16:54.640Z,4.72
2022-09-29T14:19:36.323Z,4.57
2022-09-29T14:22:06.972Z,4.75
2022-09-29T14:24:45.431Z,4.88
2022-09-29T14:27:32.808Z,4.80
2022-09-29T14:30:20.012Z,5.17
2022-09-29T14:32:56.201Z,5.47
2022-09-29T14:35:29.458Z,4.80
2022-09-29T14:38:05.602Z,5.55
2022-09-29T14:40:34.163Z,5.47
2022-09-29T14:43:16.512Z,5.30
2022-09-29T14:46:20.248Z,5.90
2022-09-29T14:49:20.904Z,5.60
2022-09-29T14:52:00.051Z,6.05
2022-09-29T14:54:36.337Z,6.28
2022-09-29T14:57:22.240Z,6.30
2022-09-29T15:00:02.903Z,8.70
2022-09-29T15:02:32.300Z,7.30
2022-09-29T15:05:01.475Z,7.00
2022-09-29T15:07:29.983Z,6.55
2022-09-29T15:09:59.542Z,7.00
2022-09-29T15:12:28.777Z,7.07
2022-09-29T15:14:57.993Z,6.30
2022-09-29T15:17:41.732Z,6.85
2022-09-29T15:20:18.960Z,6.45
2022-09-29T15:23:06.384Z,6.95
2022-09-29T15:25:36.193Z,6.00
2022-09-29T15:28:06.427Z,6.28
2022-09-29T15:30:34.927Z,6.65
2022-09-29T15:33:19.988Z,6.85
2022-09-29T15:35:52.205Z,7.00
2022-09-29T15:38:36.678Z,7.57
2022-09-29T15:41:14.171Z,7.55
2022-09-29T15:43:44.930Z,7.80
2022-09-29T15:46:21.356Z,7.28
2022-09-29T15:49:17.350Z,7.18
2022-09-29T15:51:56.917Z,8.05
2022-09-29T15:54:25.388Z,7.82
2022-09-29T15:57:10.869Z,8.45
2022-09-29T15:59:52.793Z,8.40
2022-09-29T16:02:29.468Z,8.65
2022-09-29T16:04:59.283Z,8.60
2022-09-29T16:07:32.602Z,8.32
2022-09-29T16:10:09.318Z,9.53
2022-09-29T16:12:41.129Z,10.20
2022-09-29T16:15:17.643Z,8.10
2022-09-29T16:17:48.555Z,9.00
2022-09-29T16:20:23.485Z,9.70
2022-09-29T16:22:52.776Z,9.45
2022-09-29T16:25:25.614Z,9.53
2022-09-29T16:27:56.531Z,7.93
2022-09-29T16:30:31.904Z,7.10
2022-09-29T16:33:14.797Z,7.82
2022-09-29T16:35:59.567Z,7.43
2022-09-29T16:38:34.466Z,7.13
2022-09-29T16:41:10.638Z,8.40
2022-09-29T16:43:40.743Z,8.77
2022-09-29T16:46:09.915Z,9.38
2022-09-29T16:48:43.011Z,9.85
2022-09-29T16:54:06.503Z,9.52
2022-09-29T16:56:35.944Z,9.95
2022-09-29T16:59:11.241Z,9.88
2022-09-29T17:01:39.372Z,10.73
2022-09-29T17:04:07.171Z,10.95
2022-09-29T17:06:35.477Z,11.25
2022-09-29T17:09:06.494Z,11.95
2022-09-29T17:11:35.454Z,11.65
2022-09-29T17:14:03.252Z,12.52
2022-09-29T17:16:31.519Z,12.07
2022-09-29T17:19:01.104Z,12.10
2022-09-29T17:21:30.291Z,12.30
2022-09-29T17:24:00.312Z,12.95
2022-09-29T17:26:54.819Z,12.07
2022-09-29T17:29:22.642Z,12.90
2022-09-29T17:31:50.539Z,12.93
2022-09-29T17:34:29.163Z,13.00
2022-09-29T17:37:00.140Z,13.70
2022-09-29T17:39:28.348Z,14.10
2022-09-29T17:41:59.271Z,13.57
2022-09-29T17:44:27.950Z,14.05
2022-09-29T17:47:05.593Z,15.15
2022-09-29T17:49:44.879Z,15.85
2022-09-29T17:52:15.436Z,16.00
2022-09-29T17:54:43.240Z,15.83
2022-09-29T17:57:21.448Z,15.65
2022-09-29T17:59:49.188Z,16.90
2022-09-29T18:02:17.051Z,16.30
2022-09-29T18:04:48.380Z,16.53
2022-09-29T18:07:16.614Z,18.05
2022-09-29T18:09:47.003Z,17.40
2022-09-29T18:12:16.184Z,15.95
2022-09-29T18:14:43.911Z,15.93
2022-09-29T18:17:11.665Z,16.52
2022-09-29T18:19:40.125Z,19.90
2022-09-29T18:22:08.511Z,23.05
2022-09-29T18:24:36.286Z,17.45
2022-09-29T18:27:04.066Z,19.00
2022-09-29T18:29:33.164Z,19.77
2022-09-29T18:32:01.251Z,21.70
2022-09-29T18:34:33.387Z,21.58
2022-09-29T18:37:01.199Z,21.50
2022-09-29T18:39:28.992Z,19.45
2022-09-29T18:41:56.813Z,19.27
2022-09-29T18:44:29.259Z,18.80
2022-09-29T18:46:58.521Z,18.13
2022-09-29T18:49:26.343Z,19.30
2022-09-29T18:51:54.268Z,18.02
2022-09-29T18:54:22.071Z,18.58
2022-09-29T18:56:53.860Z,18.42
2022-09-29T18:59:22.837Z,18.77
2022-09-29T19:01:50.765Z,18.42
2022-09-29T19:04:19.987Z,19.08
2022-09-29T19:06:47.786Z,18.40
2022-09-29T19:09:15.598Z,17.92
2022-09-29T19:11:45.002Z,18.25
2022-09-29T19:14:13.648Z,18.20
2022-09-29T19:16:41.465Z,17.27
2022-09-29T19:19:10.241Z,17.10
2022-09-29T19:21:39.999Z,16.47
2022-09-29T19:24:07.814Z,15.52
2022-09-29T19:26:35.678Z,16.23
2022-09-29T19:29:03.775Z,15.65
2022-09-29T19:31:31.588Z,15.80
2022-09-29T19:33:59.375Z,16.30
2022-09-29T19:36:27.635Z,16.52
2022-09-29T19:38:56.906Z,17.48
2022-09-29T19:41:25.743Z,17.23
2022-09-29T19:43:53.689Z,17.38
2022-09-29T19:46:22.542Z,17.52
2022-09-29T19:48:50.488Z,17.03
2022-09-29T19:51:36.566Z,16.73
2022-09-29T19:54:15.047Z,14.98
2022-09-29T19:56:44.686Z,14.52
2022-09-29T19:59:14.428Z,14.10
2022-09-29T20:01:44.438Z,14.30
2022-09-29T20:04:12.679Z,12.53
2022-09-29T20:06:41.400Z,13.10
2022-09-29T20:09:10.641Z,12.48
2022-09-29T20:11:40.265Z,11.45
2022-09-29T20:14:10.103Z,11.20
2022-09-29T20:16:41.264Z,11.82
2022-09-29T20:19:10.753Z,11.07
2022-09-29T20:21:40.325Z,11.18
2022-09-29T20:24:11.019Z,11.05
2022-09-29T20:26:39.346Z,11.60
2022-09-29T20:29:07.442Z,12.57
2022-09-29T20:31:38.647Z,12.10
2022-09-29T20:34:07.740Z,12.95
2022-09-29T20:36:36.115Z,11.90
2022-09-29T20:39:04.423Z,12.50
2022-09-29T20:41:33.524Z,12.85
2022-09-29T20:44:01.376Z,14.00
2022-09-29T20:46:29.788Z,14.45
2022-09-29T20:48:59.493Z,15.63
2022-09-29T20:51:29.081Z,15.57
2022-09-29T20:53:58.575Z,16.92
2022-09-29T20:56:31.247Z,17.52
2022-09-29T20:59:01.069Z,16.85
2022-09-29T21:01:30.351Z,17.27
2022-09-29T21:04:00.611Z,17.03
2022-09-29T21:06:30.602Z,17.52
2022-09-29T21:08:59.694Z,17.73
2022-09-29T21:11:27.875Z,16.00
2022-09-29T21:13:57.682Z,17.65
2022-09-29T21:16:26.958Z,17.92
2022-09-29T21:18:55.099Z,16.45
2022-09-29T21:21:22.863Z,16.30
2022-09-29T21:23:50.712Z,16.40
2022-09-29T21:26:19.836Z,17.02
2022-09-29T21:28:50.423Z,17.48
2022-09-29T21:31:20.071Z,16.50
2022-09-29T21:33:54.282Z,16.42
2022-09-29T21:36:23.934Z,16.90
2022-09-29T21:38:52.423Z,17.30
2022-09-29T21:41:21.638Z,17.57
2022-09-29T21:43:51.642Z,17.60
2022-09-29T21:46:21.391Z,17.50
2022-09-29T21:48:53.666Z,17.30
2022-09-29T21:51:23.586Z,17.23
2022-09-29T21:53:52.489Z,16.63
2022-09-29T21:56:21.846Z,17.60
2022-09-29T21:58:50.974Z,17.15
2022-09-29T22:01:19.479Z,20.27
2022-09-29T22:03:49.031Z,20.45
2022-09-29T22:06:19.895Z,19.20
2022-09-29T22:08:48.064Z,20.33
2022-09-29T22:11:16.590Z,20.05
2022-09-29T22:13:44.364Z,18.85
2022-09-29T22:16:14.250Z,19.17
2022-09-29T22:18:43.036Z,19.03
2022-09-29T22:21:12.310Z,19.35
2022-09-29T22:23:41.423Z,19.48
2022-09-29T22:26:12.230Z,21.02
2022-09-29T22:28:40.547Z,20.25
2022-09-29T22:31:10.082Z,19.83
2022-09-29T22:33:38.713Z,20.73
2022-09-29T22:36:07.228Z,20.73
2022-09-29T22:38:36.108Z,19.40
2022-09-29T22:41:10.198Z,19.38
2022-09-29T22:43:37.919Z,19.17
2022-09-29T22:46:06.615Z,19.08
2022-09-29T22:48:34.863Z,18.85
2022-09-29T22:51:03.162Z,18.70
2022-09-29T22:53:31.230Z,17.98
2022-09-29T22:55:59.065Z,17.98
2022-09-29T22:58:28.319Z,18.98
2022-09-29T23:01:03.911Z,18.23
2022-09-29T23:03:31.665Z,19.52
2022-09-29T23:06:00.791Z,19.20
2022-09-29T23:08:30.516Z,19.02
2022-09-29T23:10:58.779Z,20.05
2022-09-29T23:13:28.211Z,18.40
2022-09-29T23:15:56.291Z,19.05
2022-09-29T23:18:24.034Z,18.98
2022-09-29T23:20:51.755Z,19.92
2022-09-29T23:23:19.494Z,20.60
2022-09-29T23:25:50.168Z,20.40
2022-09-29T23:28:17.900Z,18.58
2022-09-29T23:30:46.996Z,20.08
2022-09-29T23:33:15.262Z,20.90
2022-09-29T23:35:43.026Z,20.02
2022-09-29T23:38:28.554Z,20.38
2022-09-29T23:40:56.686Z,19.77
2022-09-29T23:43:24.455Z,20.30
2022-09-29T23:45:53.652Z,19.90
2022-09-29T23:48:22.251Z,20.92
2022-09-29T23:50:50.006Z,22.15
2022-09-29T23:53:18.492Z,22.35
2022-09-29T23:55:46.219Z,22.85
2022-09-29T23:58:13.930Z,21.70
